首页
METAR-TAF:

METAR-TAF

机场 :

法布拉, 英格兰

纬度: 51-17N, 经度: 000-46W, 海拔: 65米

当前天气观测

该预报发布于27分钟前的10:50 UTC
风速15节,风向南转西南,在西转西南之间变化
温度 17°C
湿度 77%
气压 1016 hPa
能见度10公里或以上
散云层高于1500英尺
散云层高于2000英尺

METAR: EGLF 161050Z 21015KT 180V240 9999 SCT015 SCT020 17/13 Q1016

时间: 12:17 (11:17 UTC)

预报

该预报发布于3小时和12分钟前的08:05 UTC
预报有效从16日的 08点(UTC)到 16日的 15点(UTC)
风速12节,风向南转西南
能见度10公里或以上
少量云层高于800英尺
短暂存在
从 16日的 08点(UTC)到 16日的 12点(UTC)
能見度: 4000
多云层高于500英尺
大阵雨
几率 30% :
短暂存在
从 16日的 12点(UTC)到 16日的 15点(UTC)
风速15节,风向西南,有时为25节阵风
能見度: 8000
阵雨

TAF: EGLF 160805Z 1608/1615 20012KT 9999 FEW008 TEMPO 1608/1612 4000 +SHRA BKN005 PROB30 TEMPO 1612/1615 22015G25KT 8000 SHRA

超过4000个机场的气象观测和天气预报(METAR&TAF报告)。

可查询的气象台以黄色和红色小点在地图上表示。

将鼠标移到小点上方,可查看气象台名称。

然后点击查看天气观测和预报。

如需切换地图:点击带黑十字的绿色按钮放大地图;点击带横线的绿色按钮缩小地图;或者点击绿色箭头查看邻近地区的地图。


METAR-TAF: